Terminal Aerodrome Forecast
Issued by NWS

Home | Current Version | Previous Version | Text Only | Print | Product List | Glossary On
Versions: 1 2 3 4 5 6 7 8 9 10 11 12
839
FTUS44 KTSA 252324
TAFXNA
TAF
KXNA 252324Z 2600/2624 33010KT P6SM VCSH SCT025 BKN060
      TEMPO 2600/2603 4SM -SHRA BR BKN030
     FM260600 01005KT P6SM BKN050
     FM261700 36007KT P6SM SKC=

USA.gov is the U.S. government's official web portal to all federal, state and local government web resources and services.